Time,TemperatureF,DewpointF,PressureIn,WindDirection,WindDirectionDegrees,WindSpeedMPH,WindSpeedGustMPH,Humidity,HourlyPrecipIn,Conditions,Clouds,dailyrainin,SolarRadiationWatts/m^2,SoftwareType,DateUTC
2013-08-19 00:11:00,77.0,42.0,-100.00,North,1,2.0,9.0,29,0.00,,,0.00,0.000000,,2013-08-19 06:11:00,
2013-08-19 00:21:00,77.0,42.0,-100.00,North,1,2.0,9.0,29,0.00,,,0.00,0.000000,,2013-08-19 06:21:00,
2013-08-19 00:32:00,77.0,42.0,-100.00,North,1,2.0,9.0,29,0.00,,,0.00,0.000000,,2013-08-19 06:32:00,
2013-08-19 00:41:00,77.0,42.0,-100.00,North,1,2.0,9.0,29,0.00,,,0.00,0.000000,,2013-08-19 06:41:00,
2013-08-19 00:42:00,74.0,41.0,-100.00,NE,51,3.0,7.0,31,0.00,,,0.00,0.000000,,2013-08-19 06:42:00,
2013-08-19 01:11:00,74.0,41.0,-100.00,NE,51,3.0,7.0,31,0.00,,,0.00,0.000000,,2013-08-19 07:11:00,
2013-08-19 01:21:00,74.0,41.0,-100.00,NE,51,3.0,7.0,31,0.00,,,0.00,0.000000,,2013-08-19 07:21:00,
2013-08-19 01:31:00,74.0,41.0,-100.00,NE,51,3.0,7.0,31,0.00,,,0.00,0.000000,,2013-08-19 07:31:00,
2013-08-19 02:11:00,72.0,41.0,-100.00,NNW,328,2.0,7.0,33,0.00,,,0.00,0.000000,,2013-08-19 08:11:00,
2013-08-19 02:21:00,72.0,41.0,-100.00,NNW,328,2.0,7.0,33,0.00,,,0.00,0.000000,,2013-08-19 08:21:00,
2013-08-19 02:32:00,72.0,41.0,-100.00,NNW,328,2.0,7.0,33,0.00,,,0.00,0.000000,,2013-08-19 08:32:00,
2013-08-19 02:41:00,72.0,41.0,-100.00,NNW,328,2.0,7.0,33,0.00,,,0.00,0.000000,,2013-08-19 08:41:00,
2013-08-19 02:42:00,71.0,41.0,-100.00,NW,315,6.0,12.0,34,0.00,,,0.00,0.000000,,2013-08-19 08:42:00,
2013-08-19 03:11:00,71.0,41.0,-100.00,NW,315,6.0,12.0,34,0.00,,,0.00,0.000000,,2013-08-19 09:11:00,
2013-08-19 03:22:00,71.0,41.0,-100.00,NW,315,6.0,12.0,34,0.00,,,0.00,0.000000,,2013-08-19 09:22:00,
2013-08-19 03:33:00,71.0,41.0,-100.00,NW,315,6.0,12.0,34,0.00,,,0.00,0.000000,,2013-08-19 09:33:00,
2013-08-19 03:42:00,68.0,41.0,-100.00,NNW,327,3.0,7.0,38,0.00,,,0.00,0.000000,,2013-08-19 09:42:00,
2013-08-19 04:12:00,68.0,41.0,-100.00,NNW,327,3.0,7.0,38,0.00,,,0.00,0.000000,,2013-08-19 10:12:00,
2013-08-19 04:22:00,68.0,41.0,-100.00,NNW,327,3.0,7.0,38,0.00,,,0.00,0.000000,,2013-08-19 10:22:00,
2013-08-19 04:33:00,68.0,41.0,-100.00,NNW,327,3.0,7.0,38,0.00,,,0.00,0.000000,,2013-08-19 10:33:00,
2013-08-19 04:42:00,68.0,42.0,-100.00,WNW,294,1.0,7.0,39,0.00,,,0.00,0.000000,,2013-08-19 10:42:00,
2013-08-19 05:12:00,68.0,42.0,-100.00,WNW,294,1.0,7.0,39,0.00,,,0.00,0.000000,,2013-08-19 11:12:00,
2013-08-19 05:21:00,68.0,42.0,-100.00,WNW,294,1.0,7.0,39,0.00,,,0.00,0.000000,,2013-08-19 11:21:00,
2013-08-19 05:33:00,68.0,42.0,-100.00,WNW,294,1.0,7.0,39,0.00,,,0.00,0.000000,,2013-08-19 11:33:00,
2013-08-19 05:42:00,67.0,42.0,-100.00,NNW,345,2.0,7.0,40,0.00,,,0.00,0.000000,,2013-08-19 11:42:00,
2013-08-19 06:11:00,67.0,42.0,-100.00,NNW,345,2.0,7.0,40,0.00,,,0.00,0.000000,,2013-08-19 12:11:00,
2013-08-19 06:21:00,67.0,42.0,-100.00,NNW,345,2.0,7.0,40,0.00,,,0.00,0.000000,,2013-08-19 12:21:00,
2013-08-19 06:32:00,67.0,42.0,-100.00,NNW,345,2.0,7.0,40,0.00,,,0.00,0.000000,,2013-08-19 12:32:00,
2013-08-19 06:42:00,66.0,42.0,-100.00,NNW,338,1.0,8.0,42,0.00,,,0.00,0.000000,,2013-08-19 12:42:00,
2013-08-19 07:13:00,66.0,42.0,-100.00,NNW,338,1.0,8.0,42,0.00,,,0.00,0.000000,,2013-08-19 13:13:00,
2013-08-19 07:22:00,66.0,42.0,-100.00,NNW,338,1.0,8.0,42,0.00,,,0.00,0.000000,,2013-08-19 13:22:00,
2013-08-19 07:32:00,66.0,42.0,-100.00,NNW,338,1.0,8.0,42,0.00,,,0.00,0.000000,,2013-08-19 13:32:00,
2013-08-19 07:42:00,67.0,43.0,-100.00,North,357,2.0,6.0,41,0.00,,,0.00,17.000000,,2013-08-19 13:42:00,
2013-08-19 08:11:00,67.0,43.0,-100.00,North,357,2.0,6.0,41,0.00,,,0.00,17.000000,,2013-08-19 14:11:00,
2013-08-19 08:21:00,67.0,43.0,-100.00,North,357,2.0,6.0,41,0.00,,,0.00,17.000000,,2013-08-19 14:21:00,
2013-08-19 08:32:00,67.0,43.0,-100.00,North,357,2.0,6.0,41,0.00,,,0.00,17.000000,,2013-08-19 14:32:00,
2013-08-19 08:42:00,70.0,43.0,-100.00,West,276,1.0,5.0,37,0.00,,,-99.99,156.000000,,2013-08-19 14:42:00,
2013-08-19 09:11:00,70.0,43.0,-100.00,West,276,1.0,5.0,37,0.00,,,-99.99,156.000000,,2013-08-19 15:11:00,
2013-08-19 09:22:00,70.0,43.0,-100.00,West,276,1.0,5.0,37,0.00,,,-99.99,156.000000,,2013-08-19 15:22:00,
2013-08-19 09:34:00,70.0,43.0,-100.00,West,276,1.0,5.0,37,0.00,,,-99.99,156.000000,,2013-08-19 15:34:00,
2013-08-19 09:42:00,75.0,45.0,-100.00,SSW,198,4.0,10.0,34,0.00,,,0.00,331.000000,,2013-08-19 15:42:00,
2013-08-19 10:13:00,75.0,45.0,-100.00,SSW,198,4.0,10.0,34,0.00,,,0.00,331.000000,,2013-08-19 16:13:00,
2013-08-19 10:23:00,75.0,45.0,-100.00,SSW,198,4.0,10.0,34,0.00,,,0.00,331.000000,,2013-08-19 16:23:00,
2013-08-19 10:33:00,75.0,45.0,-100.00,SSW,198,4.0,10.0,34,0.00,,,0.00,331.000000,,2013-08-19 16:33:00,
2013-08-19 10:42:00,82.0,43.0,-100.00,ENE,78,5.0,13.0,25,0.00,,,0.00,507.000000,,2013-08-19 16:42:00,
2013-08-19 11:12:00,82.0,43.0,-100.00,ENE,78,5.0,13.0,25,0.00,,,0.00,507.000000,,2013-08-19 17:12:00,
2013-08-19 11:30:00,82.0,-99.9,-100.00,ENE,78,5.0,13.0,25,0.00,,,0.00,507.000000,,2013-08-19 17:30:00,
2013-08-19 11:38:00,82.0,43.0,-100.00,ENE,78,5.0,13.0,25,0.00,,,0.00,507.000000,,2013-08-19 17:38:00,
2013-08-19 11:42:00,-999.0,-99.9,-100.00,SSW,200,2.0,12.0,20,0.00,,,0.00,655.000000,,2013-08-19 17:42:00,
2013-08-19 12:19:00,85.0,39.0,-100.00,SSW,200,2.0,12.0,20,0.00,,,0.00,655.000000,,2013-08-19 18:19:00,
2013-08-19 12:28:00,85.0,39.0,-100.00,SSW,200,2.0,12.0,20,0.00,,,0.00,655.000000,,2013-08-19 18:28:00,
2013-08-19 12:38:00,85.0,39.0,-100.00,SSW,200,2.0,12.0,20,0.00,,,0.00,655.000000,,2013-08-19 18:38:00,
2013-08-19 12:42:00,88.0,35.0,-100.00,SSW,205,8.0,13.0,15,0.00,,,-99.99,783.000000,,2013-08-19 18:42:00,
2013-08-19 13:30:00,-999.0,-99.9,-100.00,SSW,205,8.0,13.0,15,0.00,,,-99.99,783.000000,,2013-08-19 19:30:00,
2013-08-19 13:40:00,88.0,35.0,-100.00,SSW,205,8.0,13.0,15,0.00,,,-99.99,783.000000,,2013-08-19 19:40:00,
2013-08-19 13:42:00,90.0,34.0,-100.00,SSW,209,4.0,13.0,14,0.00,,,0.00,851.000000,,2013-08-19 19:42:00,
2013-08-19 14:20:00,90.0,34.0,-100.00,SSW,209,4.0,13.0,14,0.00,,,0.00,851.000000,,2013-08-19 20:20:00,
2013-08-19 14:30:00,90.0,34.0,-100.00,SSW,209,4.0,13.0,14,0.00,,,0.00,851.000000,,2013-08-19 20:30:00,
2013-08-19 14:39:00,90.0,34.0,-100.00,SSW,209,4.0,13.0,14,0.00,,,0.00,851.000000,,2013-08-19 20:39:00,
2013-08-19 14:42:00,91.0,35.0,-100.00,SE,132,10.0,16.0,14,0.00,,,0.00,871.000000,,2013-08-19 20:42:00,
2013-08-19 15:16:00,91.0,35.0,-100.00,SE,132,10.0,16.0,14,0.00,,,0.00,871.000000,,2013-08-19 21:16:00,
2013-08-19 15:25:00,91.0,35.0,-100.00,SE,132,10.0,16.0,14,0.00,,,0.00,871.000000,,2013-08-19 21:25:00,
2013-08-19 15:38:00,91.0,35.0,-100.00,SE,132,10.0,16.0,14,0.00,,,0.00,871.000000,,2013-08-19 21:38:00,
2013-08-19 15:42:00,93.0,35.0,-100.00,South,188,8.0,18.0,13,0.00,,,0.00,836.000000,,2013-08-19 21:42:00,
2013-08-19 16:25:00,93.0,35.0,-100.00,South,188,8.0,18.0,13,0.00,,,0.00,836.000000,,2013-08-19 22:25:00,
2013-08-19 16:35:00,93.0,35.0,-100.00,South,188,8.0,18.0,13,0.00,,,0.00,836.000000,,2013-08-19 22:35:00,
2013-08-19 16:42:00,94.0,31.0,-100.00,South,187,11.0,20.0,11,0.00,,,0.00,749.000000,,2013-08-19 22:42:00,
2013-08-19 17:15:00,94.0,31.0,-100.00,South,187,11.0,20.0,11,0.00,,,0.00,749.000000,,2013-08-19 23:15:00,
2013-08-19 17:25:00,94.0,31.0,-100.00,South,187,11.0,20.0,11,0.00,,,0.00,749.000000,,2013-08-19 23:25:00,
2013-08-19 17:36:00,94.0,31.0,-100.00,South,187,11.0,20.0,11,0.00,,,0.00,749.000000,,2013-08-19 23:36:00,
2013-08-19 18:23:00,94.0,24.0,-100.00,NW,312,11.0,23.0,8,0.00,,,0.00,619.000000,,2013-08-20 00:23:00,
2013-08-19 18:32:00,94.0,24.0,-100.00,NW,312,11.0,23.0,8,0.00,,,0.00,619.000000,,2013-08-20 00:32:00,
2013-08-19 18:42:00,94.0,21.0,-100.00,West,262,7.0,22.0,7,0.00,,,0.00,463.000000,,2013-08-20 00:42:00,
2013-08-19 19:42:00,91.0,31.0,-100.00,WNW,290,9.0,20.0,12,0.00,,,0.00,261.000000,,2013-08-20 01:42:00,
2013-08-19 20:11:00,91.0,31.0,-100.00,WNW,290,9.0,20.0,12,0.00,,,0.00,261.000000,,2013-08-20 02:11:00,
2013-08-19 20:21:00,91.0,31.0,-100.00,WNW,290,9.0,20.0,12,0.00,,,0.00,261.000000,,2013-08-20 02:21:00,
2013-08-19 20:32:00,91.0,31.0,-100.00,WNW,290,9.0,20.0,12,0.00,,,0.00,261.000000,,2013-08-20 02:32:00,
2013-08-19 20:42:00,87.0,34.0,-100.00,NW,306,11.0,17.0,15,0.00,,,0.00,79.000000,,2013-08-20 02:42:00,
2013-08-19 21:11:00,87.0,34.0,-100.00,NW,306,11.0,17.0,15,0.00,,,0.00,79.000000,,2013-08-20 03:11:00,
2013-08-19 21:22:00,87.0,34.0,-100.00,NW,306,11.0,17.0,15,0.00,,,0.00,79.000000,,2013-08-20 03:22:00,
2013-08-19 21:33:00,87.0,34.0,-100.00,NW,306,11.0,17.0,15,0.00,,,0.00,79.000000,,2013-08-20 03:33:00,
2013-08-19 21:42:00,83.0,36.0,-100.00,North,6,4.0,11.0,19,0.00,,,0.00,2.000000,,2013-08-20 03:42:00,
2013-08-19 22:13:00,83.0,36.0,-100.00,North,6,4.0,11.0,19,0.00,,,0.00,2.000000,,2013-08-20 04:13:00,
2013-08-19 22:23:00,83.0,36.0,-100.00,North,6,4.0,11.0,19,0.00,,,0.00,2.000000,,2013-08-20 04:23:00,
2013-08-19 22:33:00,83.0,36.0,-100.00,North,6,4.0,11.0,19,0.00,,,0.00,2.000000,,2013-08-20 04:33:00,
2013-08-19 22:42:00,79.0,37.0,-100.00,SSE,148,1.0,7.0,22,0.00,,,0.00,0.000000,,2013-08-20 04:42:00,
2013-08-19 23:12:00,79.0,37.0,-100.00,SSE,148,1.0,7.0,22,0.00,,,0.00,0.000000,,2013-08-20 05:12:00,
2013-08-19 23:22:00,79.0,37.0,-100.00,SSE,148,1.0,7.0,22,0.00,,,0.00,0.000000,,2013-08-20 05:22:00,
2013-08-19 23:32:00,79.0,37.0,-100.00,SSE,148,1.0,7.0,22,0.00,,,0.00,0.000000,,2013-08-20 05:32:00,
2013-08-19 23:42:00,76.0,36.0,-100.00,WSW,252,1.0,6.0,23,0.00,,,0.00,0.000000,,2013-08-20 05:42:00,